Terminal Aerodrome Forecast
Issued by NWS

Current Version | Previous Version | Text Only | Print | Product List | Glossary Off
Versions: 1 2 3 4 5 6 7 8 9 10 11 12 13 14 15 16 17 18 19 20 21 22 23 24 25 26 27 28 29 30 31 32 33 34 35 36

000
FTUS41 KRNK 242327
TAFLWB
TAF
KLWB 242327Z 2500/2524 19007KT P6SM VCSH OVC025
      TEMPO 2500/2503 29020G35KT 3SM SHRA OVC015
     FM250300 28008KT P6SM OVC030
     FM251000 29010G22KT P6SM -SHRASN OVC018
     FM251600 28007KT P6SM BKN025
     FM251900 28005KT P6SM SCT035=

USA.gov is the U.S. government's official web portal to all federal, state and local government web resources and services.